Sidney Municipal-Lloyd W Carr Field
KSNY : now visible

Airfield :











YOU CAN JOIN US ON...

 
LOGIN :

Register | Disclaimer

   EN    FR    IT 

 









Legend :    VFR   Marginal VFR   IFR   Intensive IFR   Very Intensive IFR
Visi :
Ceiling :
>= 8 km
>= 3000ft
5 to 8 km
1000 to 3000 ft
1500m to 5 km
500 to 1000 ft
800 to 1500m
200 to 500 ft
< 800m
< 200 ft
Symbols :   Thunderstorms  Fog  Heavy snow  Heavy precipitations  Wind > 20 kt






- Airport Elevation : 4313 ft


KSNY - Sidney Municipal-Lloyd W Carr Field

CURRENT METAR :
  • 221653Z AUTO 32016G24KT 10SM CLR 11/M03 A3009 RMK AO2 PK WND 31026/1624 SLP192 T01111033

EXPIRED METARs :
  • 221553Z AUTO 32015KT 10SM CLR 08/M03 A3011 RMK AO2 SLP206 T00831033
  • 221453Z AUTO 30013KT 10SM CLR 04/M04 A3012 RMK AO2 SLP216 T00441039 53010

TAF KSNY
Valid from the 22 at 12:00 until the 23 at 12:00 UTC


221120Z 2212/2312 30012KT P6SM BKN080
FM221500 30022G32KT P6SM BKN080



MET'MAP, your aeronautical weather chart ! - Copyright ORBIFLY December 2007 - Disclaimer

ORBIFLY MET'MAP TEAM :

Programming & Development : Alexandra Zaïnal
Concept & Development : Baudouin d'Aumeries
Co-Development & Prog : Marc-Olivier Méhu
Technical & hardware support : Manuel Goepfert

Contact : metmap@orbifly.com




SOURCES & CREDITS :

   NOAA       Earth
Advisory